sensor_id;sensor_type;location;lat;lon;timestamp;P1;durP1;ratioP1;P2;durP2;ratioP2
35558;SDS011;21661;50.794;-1.066;2023-04-24T00:00:23;15.20;;;9.70;;
35558;SDS011;21661;50.794;-1.066;2023-04-24T00:02:49;16.50;;;10.60;;
35558;SDS011;21661;50.794;-1.066;2023-04-24T00:05:15;19.17;;;10.68;;
35558;SDS011;21661;50.794;-1.066;2023-04-24T00:07:42;18.77;;;10.77;;
35558;SDS011;21661;50.794;-1.066;2023-04-24T00:10:08;19.75;;;11.60;;
35558;SDS011;21661;50.794;-1.066;2023-04-24T00:12:34;19.50;;;12.07;;
35558;SDS011;21661;50.794;-1.066;2023-04-24T00:15:00;20.23;;;11.93;;
35558;SDS011;21661;50.794;-1.066;2023-04-24T00:17:27;20.92;;;12.48;;
35558;SDS011;21661;50.794;-1.066;2023-04-24T00:19:52;22.17;;;13.55;;
35558;SDS011;21661;50.794;-1.066;2023-04-24T00:22:23;20.45;;;12.23;;
35558;SDS011;21661;50.794;-1.066;2023-04-24T00:24:50;22.42;;;13.10;;
35558;SDS011;21661;50.794;-1.066;2023-04-24T00:27:16;23.77;;;13.43;;
35558;SDS011;21661;50.794;-1.066;2023-04-24T00:29:41;26.42;;;13.75;;
35558;SDS011;21661;50.794;-1.066;2023-04-24T00:32:07;25.45;;;14.90;;
35558;SDS011;21661;50.794;-1.066;2023-04-24T00:34:32;24.52;;;14.57;;
35558;SDS011;21661;50.794;-1.066;2023-04-24T00:36:58;23.73;;;13.88;;
35558;SDS011;21661;50.794;-1.066;2023-04-24T00:39:24;24.83;;;14.90;;
35558;SDS011;21661;50.794;-1.066;2023-04-24T00:41:49;26.75;;;16.02;;
35558;SDS011;21661;50.794;-1.066;2023-04-24T00:44:16;23.80;;;14.18;;
35558;SDS011;21661;50.794;-1.066;2023-04-24T00:46:42;25.30;;;13.60;;
35558;SDS011;21661;50.794;-1.066;2023-04-24T00:49:08;23.17;;;13.88;;
35558;SDS011;21661;50.794;-1.066;2023-04-24T00:51:33;23.20;;;13.32;;
35558;SDS011;21661;50.794;-1.066;2023-04-24T00:54:00;24.55;;;14.13;;
35558;SDS011;21661;50.794;-1.066;2023-04-24T00:56:26;23.80;;;13.98;;
35558;SDS011;21661;50.794;-1.066;2023-04-24T00:58:52;22.08;;;13.88;;
35558;SDS011;21661;50.794;-1.066;2023-04-24T01:01:21;24.70;;;14.20;;
35558;SDS011;21661;50.794;-1.066;2023-04-24T01:03:48;25.80;;;14.90;;
35558;SDS011;21661;50.794;-1.066;2023-04-24T01:06:16;26.60;;;14.63;;
35558;SDS011;21661;50.794;-1.066;2023-04-24T01:08:42;25.13;;;14.50;;
35558;SDS011;21661;50.794;-1.066;2023-04-24T01:11:10;23.45;;;13.70;;
35558;SDS011;21661;50.794;-1.066;2023-04-24T01:13:35;27.63;;;15.20;;
35558;SDS011;21661;50.794;-1.066;2023-04-24T01:16:01;25.20;;;13.80;;
35558;SDS011;21661;50.794;-1.066;2023-04-24T01:18:27;24.10;;;12.80;;
35558;SDS011;21661;50.794;-1.066;2023-04-24T01:20:54;24.88;;;14.02;;
35558;SDS011;21661;50.794;-1.066;2023-04-24T01:23:23;21.92;;;13.45;;
35558;SDS011;21661;50.794;-1.066;2023-04-24T01:25:48;23.65;;;13.88;;
35558;SDS011;21661;50.794;-1.066;2023-04-24T01:28:15;26.00;;;13.48;;
35558;SDS011;21661;50.794;-1.066;2023-04-24T01:30:41;26.13;;;13.15;;
35558;SDS011;21661;50.794;-1.066;2023-04-24T01:33:07;23.83;;;13.43;;
35558;SDS011;21661;50.794;-1.066;2023-04-24T01:35:33;24.23;;;13.98;;
35558;SDS011;21661;50.794;-1.066;2023-04-24T01:38:01;25.38;;;13.88;;
35558;SDS011;21661;50.794;-1.066;2023-04-24T01:40:26;24.23;;;14.10;;
35558;SDS011;21661;50.794;-1.066;2023-04-24T01:42:52;22.83;;;13.55;;
35558;SDS011;21661;50.794;-1.066;2023-04-24T01:45:18;22.70;;;13.45;;
35558;SDS011;21661;50.794;-1.066;2023-04-24T01:47:44;25.02;;;13.93;;
35558;SDS011;21661;50.794;-1.066;2023-04-24T01:50:11;22.42;;;13.95;;
35558;SDS011;21661;50.794;-1.066;2023-04-24T01:52:36;23.08;;;13.65;;
35558;SDS011;21661;50.794;-1.066;2023-04-24T01:55:03;23.23;;;14.25;;
35558;SDS011;21661;50.794;-1.066;2023-04-24T01:57:29;23.08;;;13.00;;
35558;SDS011;21661;50.794;-1.066;2023-04-24T01:59:56;25.40;;;13.40;;
35558;SDS011;21661;50.794;-1.066;2023-04-24T02:02:21;22.15;;;13.75;;
35558;SDS011;21661;50.794;-1.066;2023-04-24T02:04:49;20.90;;;12.90;;
35558;SDS011;21661;50.794;-1.066;2023-04-24T02:07:15;27.58;;;14.93;;
35558;SDS011;21661;50.794;-1.066;2023-04-24T02:09:41;25.75;;;14.10;;
35558;SDS011;21661;50.794;-1.066;2023-04-24T02:12:06;24.38;;;14.18;;
35558;SDS011;21661;50.794;-1.066;2023-04-24T02:14:32;26.23;;;14.70;;
35558;SDS011;21661;50.794;-1.066;2023-04-24T02:16:58;25.50;;;14.18;;
35558;SDS011;21661;50.794;-1.066;2023-04-24T02:19:23;25.95;;;14.95;;
35558;SDS011;21661;50.794;-1.066;2023-04-24T02:21:49;24.55;;;14.05;;
35558;SDS011;21661;50.794;-1.066;2023-04-24T02:24:14;25.95;;;14.45;;
35558;SDS011;21661;50.794;-1.066;2023-04-24T02:26:40;24.40;;;14.23;;
35558;SDS011;21661;50.794;-1.066;2023-04-24T02:29:06;25.65;;;14.50;;
35558;SDS011;21661;50.794;-1.066;2023-04-24T02:31:32;23.88;;;14.38;;
35558;SDS011;21661;50.794;-1.066;2023-04-24T02:33:57;28.13;;;14.95;;
35558;SDS011;21661;50.794;-1.066;2023-04-24T02:36:23;22.73;;;13.70;;
35558;SDS011;21661;50.794;-1.066;2023-04-24T02:38:49;24.17;;;14.00;;
35558;SDS011;21661;50.794;-1.066;2023-04-24T02:41:14;25.42;;;13.95;;
35558;SDS011;21661;50.794;-1.066;2023-04-24T02:43:40;24.77;;;14.63;;
35558;SDS011;21661;50.794;-1.066;2023-04-24T02:46:05;24.90;;;14.07;;
35558;SDS011;21661;50.794;-1.066;2023-04-24T02:48:31;27.75;;;14.55;;
35558;SDS011;21661;50.794;-1.066;2023-04-24T02:50:56;25.63;;;14.30;;
35558;SDS011;21661;50.794;-1.066;2023-04-24T02:53:22;25.92;;;13.82;;
35558;SDS011;21661;50.794;-1.066;2023-04-24T02:55:48;24.98;;;14.55;;
35558;SDS011;21661;50.794;-1.066;2023-04-24T02:58:14;27.23;;;14.90;;
35558;SDS011;21661;50.794;-1.066;2023-04-24T03:00:39;27.67;;;15.20;;
35558;SDS011;21661;50.794;-1.066;2023-04-24T03:03:05;24.00;;;13.95;;
35558;SDS011;21661;50.794;-1.066;2023-04-24T03:05:31;25.25;;;15.00;;
35558;SDS011;21661;50.794;-1.066;2023-04-24T03:07:57;27.13;;;14.60;;
35558;SDS011;21661;50.794;-1.066;2023-04-24T03:10:23;24.80;;;13.90;;
35558;SDS011;21661;50.794;-1.066;2023-04-24T03:12:48;23.73;;;13.90;;
35558;SDS011;21661;50.794;-1.066;2023-04-24T03:15:14;24.25;;;14.15;;
35558;SDS011;21661;50.794;-1.066;2023-04-24T03:17:40;27.52;;;14.65;;
35558;SDS011;21661;50.794;-1.066;2023-04-24T03:20:06;23.45;;;14.48;;
35558;SDS011;21661;50.794;-1.066;2023-04-24T03:22:33;23.73;;;13.63;;
35558;SDS011;21661;50.794;-1.066;2023-04-24T03:24:59;22.17;;;13.43;;
35558;SDS011;21661;50.794;-1.066;2023-04-24T03:27:25;24.13;;;13.80;;
35558;SDS011;21661;50.794;-1.066;2023-04-24T03:29:51;25.23;;;15.20;;
35558;SDS011;21661;50.794;-1.066;2023-04-24T03:32:20;24.95;;;14.25;;
35558;SDS011;21661;50.794;-1.066;2023-04-24T03:34:48;24.20;;;13.88;;
35558;SDS011;21661;50.794;-1.066;2023-04-24T03:37:15;26.73;;;14.13;;
35558;SDS011;21661;50.794;-1.066;2023-04-24T03:39:41;24.38;;;14.15;;
35558;SDS011;21661;50.794;-1.066;2023-04-24T03:42:07;33.33;;;15.23;;
35558;SDS011;21661;50.794;-1.066;2023-04-24T03:44:33;26.92;;;14.50;;
35558;SDS011;21661;50.794;-1.066;2023-04-24T03:46:59;27.08;;;14.60;;
35558;SDS011;21661;50.794;-1.066;2023-04-24T03:49:25;24.08;;;13.90;;
35558;SDS011;21661;50.794;-1.066;2023-04-24T03:51:51;25.05;;;14.15;;
35558;SDS011;21661;50.794;-1.066;2023-04-24T03:54:17;24.60;;;14.52;;
35558;SDS011;21661;50.794;-1.066;2023-04-24T03:56:43;26.15;;;14.43;;
35558;SDS011;21661;50.794;-1.066;2023-04-24T03:59:09;24.58;;;13.80;;
35558;SDS011;21661;50.794;-1.066;2023-04-24T04:01:35;26.38;;;14.80;;
35558;SDS011;21661;50.794;-1.066;2023-04-24T04:04:04;26.13;;;14.52;;
35558;SDS011;21661;50.794;-1.066;2023-04-24T04:06:30;24.15;;;13.63;;
35558;SDS011;21661;50.794;-1.066;2023-04-24T04:08:56;23.25;;;13.30;;
35558;SDS011;21661;50.794;-1.066;2023-04-24T04:11:22;24.45;;;13.82;;
35558;SDS011;21661;50.794;-1.066;2023-04-24T04:13:48;22.40;;;13.43;;
35558;SDS011;21661;50.794;-1.066;2023-04-24T04:16:14;26.35;;;14.15;;
35558;SDS011;21661;50.794;-1.066;2023-04-24T04:18:42;27.38;;;14.30;;
35558;SDS011;21661;50.794;-1.066;2023-04-24T04:21:10;25.38;;;13.98;;
35558;SDS011;21661;50.794;-1.066;2023-04-24T04:23:36;23.23;;;13.45;;
35558;SDS011;21661;50.794;-1.066;2023-04-24T04:26:02;22.58;;;12.82;;
35558;SDS011;21661;50.794;-1.066;2023-04-24T04:28:28;20.65;;;12.50;;
35558;SDS011;21661;50.794;-1.066;2023-04-24T04:30:56;21.40;;;12.80;;
35558;SDS011;21661;50.794;-1.066;2023-04-24T04:33:23;21.40;;;12.40;;
35558;SDS011;21661;50.794;-1.066;2023-04-24T04:35:49;21.05;;;12.80;;
35558;SDS011;21661;50.794;-1.066;2023-04-24T04:38:16;22.17;;;12.88;;
35558;SDS011;21661;50.794;-1.066;2023-04-24T04:40:43;25.30;;;13.57;;
35558;SDS011;21661;50.794;-1.066;2023-04-24T04:43:09;21.50;;;12.43;;
35558;SDS011;21661;50.794;-1.066;2023-04-24T04:45:35;21.02;;;12.57;;
35558;SDS011;21661;50.794;-1.066;2023-04-24T04:48:06;23.80;;;13.27;;
35558;SDS011;21661;50.794;-1.066;2023-04-24T04:50:33;21.30;;;12.77;;
35558;SDS011;21661;50.794;-1.066;2023-04-24T04:52:59;21.55;;;12.63;;
35558;SDS011;21661;50.794;-1.066;2023-04-24T04:55:25;18.63;;;11.70;;
35558;SDS011;21661;50.794;-1.066;2023-04-24T04:57:51;22.20;;;12.82;;
35558;SDS011;21661;50.794;-1.066;2023-04-24T05:00:17;21.73;;;12.20;;
35558;SDS011;21661;50.794;-1.066;2023-04-24T05:02:43;21.90;;;13.18;;
35558;SDS011;21661;50.794;-1.066;2023-04-24T05:05:08;22.15;;;12.52;;
35558;SDS011;21661;50.794;-1.066;2023-04-24T05:07:35;21.85;;;12.20;;
35558;SDS011;21661;50.794;-1.066;2023-04-24T05:10:00;19.55;;;11.77;;
35558;SDS011;21661;50.794;-1.066;2023-04-24T05:12:26;21.10;;;12.27;;
35558;SDS011;21661;50.794;-1.066;2023-04-24T05:14:52;20.15;;;13.32;;
35558;SDS011;21661;50.794;-1.066;2023-04-24T05:17:18;19.23;;;11.57;;
35558;SDS011;21661;50.794;-1.066;2023-04-24T05:19:44;19.95;;;11.52;;
35558;SDS011;21661;50.794;-1.066;2023-04-24T05:22:09;22.92;;;11.73;;
35558;SDS011;21661;50.794;-1.066;2023-04-24T05:24:36;18.40;;;11.13;;
35558;SDS011;21661;50.794;-1.066;2023-04-24T05:27:02;22.17;;;13.18;;
35558;SDS011;21661;50.794;-1.066;2023-04-24T05:29:29;21.52;;;13.50;;
35558;SDS011;21661;50.794;-1.066;2023-04-24T05:31:58;22.23;;;12.98;;
35558;SDS011;21661;50.794;-1.066;2023-04-24T05:34:25;19.98;;;11.80;;
35558;SDS011;21661;50.794;-1.066;2023-04-24T05:36:51;22.90;;;12.15;;
35558;SDS011;21661;50.794;-1.066;2023-04-24T05:39:18;19.73;;;11.93;;
35558;SDS011;21661;50.794;-1.066;2023-04-24T05:41:44;21.10;;;12.70;;
35558;SDS011;21661;50.794;-1.066;2023-04-24T05:44:10;22.75;;;12.07;;
35558;SDS011;21661;50.794;-1.066;2023-04-24T05:46:36;20.38;;;12.55;;
35558;SDS011;21661;50.794;-1.066;2023-04-24T05:49:01;20.15;;;12.45;;
35558;SDS011;21661;50.794;-1.066;2023-04-24T05:51:27;21.95;;;11.45;;
35558;SDS011;21661;50.794;-1.066;2023-04-24T05:53:53;18.70;;;12.50;;
35558;SDS011;21661;50.794;-1.066;2023-04-24T05:56:19;21.50;;;12.38;;
35558;SDS011;21661;50.794;-1.066;2023-04-24T05:58:45;17.52;;;11.45;;
35558;SDS011;21661;50.794;-1.066;2023-04-24T06:01:11;20.05;;;12.30;;
35558;SDS011;21661;50.794;-1.066;2023-04-24T06:03:37;21.33;;;11.80;;
35558;SDS011;21661;50.794;-1.066;2023-04-24T06:06:05;23.27;;;12.18;;
35558;SDS011;21661;50.794;-1.066;2023-04-24T06:08:31;21.30;;;11.77;;
35558;SDS011;21661;50.794;-1.066;2023-04-24T06:10:57;20.45;;;11.75;;
35558;SDS011;21661;50.794;-1.066;2023-04-24T06:13:23;19.08;;;11.38;;
35558;SDS011;21661;50.794;-1.066;2023-04-24T06:15:48;20.98;;;11.65;;
35558;SDS011;21661;50.794;-1.066;2023-04-24T06:18:14;19.88;;;11.75;;
35558;SDS011;21661;50.794;-1.066;2023-04-24T06:20:40;18.42;;;11.70;;
35558;SDS011;21661;50.794;-1.066;2023-04-24T06:23:05;21.23;;;11.43;;
35558;SDS011;21661;50.794;-1.066;2023-04-24T06:25:31;21.15;;;11.63;;
35558;SDS011;21661;50.794;-1.066;2023-04-24T06:27:57;20.27;;;11.07;;
35558;SDS011;21661;50.794;-1.066;2023-04-24T06:30:22;22.55;;;11.93;;
35558;SDS011;21661;50.794;-1.066;2023-04-24T06:32:48;19.58;;;11.68;;
35558;SDS011;21661;50.794;-1.066;2023-04-24T06:35:14;20.40;;;10.75;;
35558;SDS011;21661;50.794;-1.066;2023-04-24T06:37:40;25.40;;;12.25;;
35558;SDS011;21661;50.794;-1.066;2023-04-24T06:40:07;18.08;;;11.60;;
35558;SDS011;21661;50.794;-1.066;2023-04-24T06:42:33;19.92;;;11.68;;
35558;SDS011;21661;50.794;-1.066;2023-04-24T06:45:00;19.98;;;11.57;;
35558;SDS011;21661;50.794;-1.066;2023-04-24T06:47:25;26.33;;;11.57;;
35558;SDS011;21661;50.794;-1.066;2023-04-24T06:49:51;22.30;;;11.57;;
35558;SDS011;21661;50.794;-1.066;2023-04-24T06:52:17;17.42;;;10.85;;
35558;SDS011;21661;50.794;-1.066;2023-04-24T06:54:43;19.33;;;11.68;;
35558;SDS011;21661;50.794;-1.066;2023-04-24T06:57:09;17.60;;;10.60;;
35558;SDS011;21661;50.794;-1.066;2023-04-24T06:59:35;18.70;;;11.25;;
35558;SDS011;21661;50.794;-1.066;2023-04-24T07:02:01;19.65;;;11.73;;
35558;SDS011;21661;50.794;-1.066;2023-04-24T07:04:27;21.65;;;12.43;;
35558;SDS011;21661;50.794;-1.066;2023-04-24T07:06:53;21.00;;;12.65;;
35558;SDS011;21661;50.794;-1.066;2023-04-24T07:09:20;19.90;;;11.93;;
35558;SDS011;21661;50.794;-1.066;2023-04-24T07:11:47;20.05;;;12.35;;
35558;SDS011;21661;50.794;-1.066;2023-04-24T07:14:13;21.33;;;12.68;;
35558;SDS011;21661;50.794;-1.066;2023-04-24T07:16:38;20.90;;;11.38;;
35558;SDS011;21661;50.794;-1.066;2023-04-24T07:19:04;18.10;;;12.02;;
35558;SDS011;21661;50.794;-1.066;2023-04-24T07:21:30;22.15;;;12.52;;
35558;SDS011;21661;50.794;-1.066;2023-04-24T07:23:57;17.00;;;11.75;;
35558;SDS011;21661;50.794;-1.066;2023-04-24T07:26:26;17.02;;;10.38;;
35558;SDS011;21661;50.794;-1.066;2023-04-24T07:28:53;24.67;;;11.32;;
35558;SDS011;21661;50.794;-1.066;2023-04-24T07:31:18;17.13;;;10.80;;
35558;SDS011;21661;50.794;-1.066;2023-04-24T07:33:44;18.85;;;11.02;;
35558;SDS011;21661;50.794;-1.066;2023-04-24T07:36:10;19.48;;;10.32;;
35558;SDS011;21661;50.794;-1.066;2023-04-24T07:38:40;17.60;;;10.73;;
35558;SDS011;21661;50.794;-1.066;2023-04-24T07:41:09;20.30;;;11.15;;
35558;SDS011;21661;50.794;-1.066;2023-04-24T07:43:35;18.42;;;11.23;;
35558;SDS011;21661;50.794;-1.066;2023-04-24T07:46:01;16.90;;;10.57;;
35558;SDS011;21661;50.794;-1.066;2023-04-24T07:48:26;15.00;;;10.32;;
35558;SDS011;21661;50.794;-1.066;2023-04-24T07:50:52;17.67;;;10.13;;
35558;SDS011;21661;50.794;-1.066;2023-04-24T07:53:18;16.52;;;9.77;;
35558;SDS011;21661;50.794;-1.066;2023-04-24T07:55:44;14.65;;;9.30;;
35558;SDS011;21661;50.794;-1.066;2023-04-24T07:58:10;16.38;;;9.82;;
35558;SDS011;21661;50.794;-1.066;2023-04-24T08:00:35;15.02;;;9.68;;
35558;SDS011;21661;50.794;-1.066;2023-04-24T08:03:01;16.00;;;10.27;;
35558;SDS011;21661;50.794;-1.066;2023-04-24T08:05:27;17.05;;;10.43;;
35558;SDS011;21661;50.794;-1.066;2023-04-24T08:07:53;14.65;;;10.60;;
35558;SDS011;21661;50.794;-1.066;2023-04-24T08:10:19;16.58;;;9.52;;
35558;SDS011;21661;50.794;-1.066;2023-04-24T08:12:46;14.55;;;9.43;;
35558;SDS011;21661;50.794;-1.066;2023-04-24T08:15:12;16.45;;;8.80;;
35558;SDS011;21661;50.794;-1.066;2023-04-24T08:17:37;16.30;;;10.20;;
35558;SDS011;21661;50.794;-1.066;2023-04-24T08:20:03;16.13;;;9.13;;
35558;SDS011;21661;50.794;-1.066;2023-04-24T08:22:30;16.98;;;9.73;;
35558;SDS011;21661;50.794;-1.066;2023-04-24T08:24:56;16.08;;;9.35;;
35558;SDS011;21661;50.794;-1.066;2023-04-24T08:27:23;13.07;;;8.43;;
35558;SDS011;21661;50.794;-1.066;2023-04-24T08:29:50;15.90;;;9.43;;
35558;SDS011;21661;50.794;-1.066;2023-04-24T08:32:18;14.65;;;9.40;;
35558;SDS011;21661;50.794;-1.066;2023-04-24T08:34:43;16.90;;;9.60;;
35558;SDS011;21661;50.794;-1.066;2023-04-24T08:37:09;15.80;;;9.40;;
35558;SDS011;21661;50.794;-1.066;2023-04-24T08:39:35;14.20;;;9.45;;
35558;SDS011;21661;50.794;-1.066;2023-04-24T08:42:01;15.88;;;9.32;;
35558;SDS011;21661;50.794;-1.066;2023-04-24T08:44:31;19.48;;;9.57;;
35558;SDS011;21661;50.794;-1.066;2023-04-24T08:46:57;15.63;;;9.00;;
35558;SDS011;21661;50.794;-1.066;2023-04-24T08:49:23;18.77;;;8.32;;
35558;SDS011;21661;50.794;-1.066;2023-04-24T08:51:50;16.63;;;8.63;;
35558;SDS011;21661;50.794;-1.066;2023-04-24T08:54:18;15.98;;;8.38;;
35558;SDS011;21661;50.794;-1.066;2023-04-24T08:56:44;13.63;;;8.20;;
35558;SDS011;21661;50.794;-1.066;2023-04-24T08:59:11;15.23;;;8.55;;
35558;SDS011;21661;50.794;-1.066;2023-04-24T09:01:38;14.30;;;9.13;;
35558;SDS011;21661;50.794;-1.066;2023-04-24T09:04:05;14.52;;;9.00;;
35558;SDS011;21661;50.794;-1.066;2023-04-24T09:06:34;15.30;;;8.38;;
35558;SDS011;21661;50.794;-1.066;2023-04-24T09:09:00;13.95;;;8.52;;
35558;SDS011;21661;50.794;-1.066;2023-04-24T09:11:27;15.15;;;7.68;;
35558;SDS011;21661;50.794;-1.066;2023-04-24T09:13:55;12.60;;;8.02;;
35558;SDS011;21661;50.794;-1.066;2023-04-24T09:16:22;12.20;;;7.90;;
35558;SDS011;21661;50.794;-1.066;2023-04-24T09:18:49;15.90;;;8.30;;
35558;SDS011;21661;50.794;-1.066;2023-04-24T09:21:15;14.05;;;7.97;;
35558;SDS011;21661;50.794;-1.066;2023-04-24T09:23:41;15.20;;;8.45;;
35558;SDS011;21661;50.794;-1.066;2023-04-24T09:26:06;12.88;;;7.78;;
35558;SDS011;21661;50.794;-1.066;2023-04-24T09:28:36;15.02;;;7.93;;
35558;SDS011;21661;50.794;-1.066;2023-04-24T09:33:32;11.82;;;7.90;;
35558;SDS011;21661;50.794;-1.066;2023-04-24T09:35:58;12.93;;;7.93;;
35558;SDS011;21661;50.794;-1.066;2023-04-24T09:38:31;12.77;;;7.55;;
35558;SDS011;21661;50.794;-1.066;2023-04-24T09:41:01;12.55;;;8.05;;
35558;SDS011;21661;50.794;-1.066;2023-04-24T09:43:31;12.25;;;7.63;;
35558;SDS011;21661;50.794;-1.066;2023-04-24T09:45:58;12.93;;;8.43;;
35558;SDS011;21661;50.794;-1.066;2023-04-24T09:48:35;14.27;;;6.70;;
35558;SDS011;21661;50.794;-1.066;2023-04-24T09:51:03;10.60;;;7.15;;
35558;SDS011;21661;50.794;-1.066;2023-04-24T09:53:31;12.10;;;8.23;;
35558;SDS011;21661;50.794;-1.066;2023-04-24T09:56:07;11.75;;;8.32;;
35558;SDS011;21661;50.794;-1.066;2023-04-24T09:58:34;13.52;;;7.97;;
35558;SDS011;21661;50.794;-1.066;2023-04-24T10:01:01;14.30;;;8.75;;
35558;SDS011;21661;50.794;-1.066;2023-04-24T10:03:29;11.52;;;7.57;;
35558;SDS011;21661;50.794;-1.066;2023-04-24T10:05:59;11.85;;;7.50;;
35558;SDS011;21661;50.794;-1.066;2023-04-24T10:08:25;12.60;;;8.80;;
35558;SDS011;21661;50.794;-1.066;2023-04-24T10:10:57;13.75;;;8.43;;
35558;SDS011;21661;50.794;-1.066;2023-04-24T10:13:24;12.73;;;8.15;;
35558;SDS011;21661;50.794;-1.066;2023-04-24T10:15:50;16.73;;;9.00;;
35558;SDS011;21661;50.794;-1.066;2023-04-24T10:18:16;11.68;;;8.32;;
35558;SDS011;21661;50.794;-1.066;2023-04-24T10:20:42;12.57;;;8.25;;
35558;SDS011;21661;50.794;-1.066;2023-04-24T10:23:08;11.73;;;8.25;;
35558;SDS011;21661;50.794;-1.066;2023-04-24T10:25:34;13.25;;;8.60;;
35558;SDS011;21661;50.794;-1.066;2023-04-24T10:28:01;13.63;;;8.45;;
35558;SDS011;21661;50.794;-1.066;2023-04-24T10:30:32;16.45;;;8.32;;
35558;SDS011;21661;50.794;-1.066;2023-04-24T10:33:03;14.82;;;9.30;;
35558;SDS011;21661;50.794;-1.066;2023-04-24T10:35:32;13.38;;;8.80;;
35558;SDS011;21661;50.794;-1.066;2023-04-24T10:40:32;17.40;;;8.63;;
35558;SDS011;21661;50.794;-1.066;2023-04-24T10:43:01;14.02;;;8.40;;
35558;SDS011;21661;50.794;-1.066;2023-04-24T10:45:28;15.77;;;9.00;;
35558;SDS011;21661;50.794;-1.066;2023-04-24T10:48:08;16.08;;;9.25;;
35558;SDS011;21661;50.794;-1.066;2023-04-24T10:50:45;13.23;;;8.93;;
35558;SDS011;21661;50.794;-1.066;2023-04-24T10:53:17;14.90;;;8.68;;
35558;SDS011;21661;50.794;-1.066;2023-04-24T10:58:22;14.00;;;8.95;;
35558;SDS011;21661;50.794;-1.066;2023-04-24T11:00:56;14.98;;;8.73;;
35558;SDS011;21661;50.794;-1.066;2023-04-24T11:03:27;13.77;;;8.75;;
35558;SDS011;21661;50.794;-1.066;2023-04-24T11:05:58;12.55;;;8.38;;
35558;SDS011;21661;50.794;-1.066;2023-04-24T11:08:32;14.65;;;8.27;;
35558;SDS011;21661;50.794;-1.066;2023-04-24T11:11:17;12.73;;;7.25;;
35558;SDS011;21661;50.794;-1.066;2023-04-24T11:27:19;12.63;;;8.10;;
35558;SDS011;21661;50.794;-1.066;2023-04-24T11:37:41;9.20;;;5.30;;
35558;SDS011;21661;50.794;-1.066;2023-04-24T11:40:11;12.35;;;5.40;;
35558;SDS011;21661;50.794;-1.066;2023-04-24T11:42:42;9.02;;;4.45;;
35558;SDS011;21661;50.794;-1.066;2023-04-24T11:47:35;8.32;;;4.80;;
35558;SDS011;21661;50.794;-1.066;2023-04-24T11:50:02;8.82;;;4.68;;
35558;SDS011;21661;50.794;-1.066;2023-04-24T11:52:33;6.75;;;4.45;;
35558;SDS011;21661;50.794;-1.066;2023-04-24T11:55:02;9.07;;;4.27;;
35558;SDS011;21661;50.794;-1.066;2023-04-24T11:57:28;10.60;;;4.93;;
35558;SDS011;21661;50.794;-1.066;2023-04-24T11:59:59;8.88;;;4.90;;
35558;SDS011;21661;50.794;-1.066;2023-04-24T12:02:26;12.38;;;5.47;;
35558;SDS011;21661;50.794;-1.066;2023-04-24T12:04:55;11.57;;;6.55;;
35558;SDS011;21661;50.794;-1.066;2023-04-24T12:07:21;13.15;;;6.68;;
35558;SDS011;21661;50.794;-1.066;2023-04-24T12:09:50;10.95;;;6.47;;
35558;SDS011;21661;50.794;-1.066;2023-04-24T12:12:24;12.20;;;6.82;;
35558;SDS011;21661;50.794;-1.066;2023-04-24T12:14:54;13.77;;;6.97;;
35558;SDS011;21661;50.794;-1.066;2023-04-24T12:17:28;11.50;;;6.20;;
35558;SDS011;21661;50.794;-1.066;2023-04-24T12:19:59;10.52;;;6.18;;
35558;SDS011;21661;50.794;-1.066;2023-04-24T12:22:27;10.65;;;6.22;;
35558;SDS011;21661;50.794;-1.066;2023-04-24T12:25:00;8.68;;;5.70;;
35558;SDS011;21661;50.794;-1.066;2023-04-24T12:27:29;12.30;;;5.50;;
35558;SDS011;21661;50.794;-1.066;2023-04-24T12:29:59;12.20;;;6.32;;
35558;SDS011;21661;50.794;-1.066;2023-04-24T12:32:26;9.55;;;6.15;;
35558;SDS011;21661;50.794;-1.066;2023-04-24T12:34:52;15.88;;;5.50;;
35558;SDS011;21661;50.794;-1.066;2023-04-24T12:37:18;8.27;;;4.80;;
35558;SDS011;21661;50.794;-1.066;2023-04-24T12:40:05;10.43;;;4.80;;
35558;SDS011;21661;50.794;-1.066;2023-04-24T12:42:35;9.82;;;5.03;;
35558;SDS011;21661;50.794;-1.066;2023-04-24T12:45:04;9.05;;;4.40;;
35558;SDS011;21661;50.794;-1.066;2023-04-24T12:47:31;10.80;;;4.45;;
35558;SDS011;21661;50.794;-1.066;2023-04-24T12:49:58;30.50;;;6.93;;
35558;SDS011;21661;50.794;-1.066;2023-04-24T12:52:25;12.15;;;5.20;;
35558;SDS011;21661;50.794;-1.066;2023-04-24T12:54:52;14.32;;;4.78;;
35558;SDS011;21661;50.794;-1.066;2023-04-24T12:57:20;18.55;;;4.25;;
35558;SDS011;21661;50.794;-1.066;2023-04-24T12:59:46;14.15;;;4.13;;
35558;SDS011;21661;50.794;-1.066;2023-04-24T13:02:12;10.15;;;3.72;;
35558;SDS011;21661;50.794;-1.066;2023-04-24T13:04:37;12.68;;;4.30;;
35558;SDS011;21661;50.794;-1.066;2023-04-24T13:07:03;14.25;;;3.72;;
35558;SDS011;21661;50.794;-1.066;2023-04-24T13:09:30;14.80;;;4.10;;
35558;SDS011;21661;50.794;-1.066;2023-04-24T13:11:55;10.73;;;3.72;;
35558;SDS011;21661;50.794;-1.066;2023-04-24T13:14:22;11.77;;;3.95;;
35558;SDS011;21661;50.794;-1.066;2023-04-24T13:16:48;14.20;;;4.40;;
35558;SDS011;21661;50.794;-1.066;2023-04-24T13:19:14;16.17;;;4.30;;
35558;SDS011;21661;50.794;-1.066;2023-04-24T13:21:40;14.18;;;4.22;;
35558;SDS011;21661;50.794;-1.066;2023-04-24T13:24:05;11.05;;;4.47;;
35558;SDS011;21661;50.794;-1.066;2023-04-24T13:26:32;14.80;;;3.95;;
35558;SDS011;21661;50.794;-1.066;2023-04-24T13:28:58;11.52;;;4.30;;
35558;SDS011;21661;50.794;-1.066;2023-04-24T13:31:24;11.13;;;3.58;;
35558;SDS011;21661;50.794;-1.066;2023-04-24T13:33:49;10.88;;;3.60;;
35558;SDS011;21661;50.794;-1.066;2023-04-24T13:36:15;11.15;;;3.92;;
35558;SDS011;21661;50.794;-1.066;2023-04-24T13:38:42;15.00;;;4.43;;
35558;SDS011;21661;50.794;-1.066;2023-04-24T13:41:09;14.88;;;3.90;;
35558;SDS011;21661;50.794;-1.066;2023-04-24T13:43:35;10.00;;;3.85;;
35558;SDS011;21661;50.794;-1.066;2023-04-24T13:46:00;17.45;;;4.15;;
35558;SDS011;21661;50.794;-1.066;2023-04-24T13:48:28;11.20;;;3.72;;
35558;SDS011;21661;50.794;-1.066;2023-04-24T13:50:54;9.52;;;3.55;;
35558;SDS011;21661;50.794;-1.066;2023-04-24T13:53:19;13.30;;;3.55;;
35558;SDS011;21661;50.794;-1.066;2023-04-24T13:55:45;11.43;;;4.18;;
35558;SDS011;21661;50.794;-1.066;2023-04-24T13:58:11;6.65;;;3.10;;
35558;SDS011;21661;50.794;-1.066;2023-04-24T14:00:36;16.75;;;4.05;;
35558;SDS011;21661;50.794;-1.066;2023-04-24T14:03:02;9.73;;;3.70;;
35558;SDS011;21661;50.794;-1.066;2023-04-24T14:05:27;15.38;;;4.22;;
35558;SDS011;21661;50.794;-1.066;2023-04-24T14:07:53;13.52;;;4.28;;
35558;SDS011;21661;50.794;-1.066;2023-04-24T14:10:19;15.88;;;4.45;;
35558;SDS011;21661;50.794;-1.066;2023-04-24T14:12:44;15.25;;;3.97;;
35558;SDS011;21661;50.794;-1.066;2023-04-24T14:15:10;12.68;;;3.85;;
35558;SDS011;21661;50.794;-1.066;2023-04-24T14:17:37;15.13;;;4.03;;
35558;SDS011;21661;50.794;-1.066;2023-04-24T14:20:02;12.48;;;4.18;;
35558;SDS011;21661;50.794;-1.066;2023-04-24T14:22:29;17.63;;;4.65;;
35558;SDS011;21661;50.794;-1.066;2023-04-24T14:24:55;16.80;;;4.72;;
35558;SDS011;21661;50.794;-1.066;2023-04-24T14:27:20;10.55;;;3.90;;
35558;SDS011;21661;50.794;-1.066;2023-04-24T14:29:46;12.48;;;4.60;;
35558;SDS011;21661;50.794;-1.066;2023-04-24T14:32:11;8.20;;;3.30;;
35558;SDS011;21661;50.794;-1.066;2023-04-24T14:34:39;13.23;;;3.83;;
35558;SDS011;21661;50.794;-1.066;2023-04-24T14:37:05;14.10;;;3.78;;
35558;SDS011;21661;50.794;-1.066;2023-04-24T14:39:31;10.35;;;3.50;;
35558;SDS011;21661;50.794;-1.066;2023-04-24T14:41:56;30.27;;;5.97;;
35558;SDS011;21661;50.794;-1.066;2023-04-24T14:44:22;10.40;;;3.42;;